sensor_id;sensor_type;location;lat;lon;timestamp;P1;durP1;ratioP1;P2;durP2;ratioP2
32918;SDS011;19280;42.646;21.150;2023-05-01T00:02:06;28.02;;;14.13;;
32918;SDS011;19280;42.646;21.150;2023-05-01T00:04:35;21.08;;;13.48;;
32918;SDS011;19280;42.646;21.150;2023-05-01T00:07:01;20.85;;;13.25;;
32918;SDS011;19280;42.646;21.150;2023-05-01T00:09:30;21.30;;;12.85;;
32918;SDS011;19280;42.646;21.150;2023-05-01T00:11:57;18.48;;;11.52;;
32918;SDS011;19280;42.646;21.150;2023-05-01T00:14:23;21.55;;;11.90;;
32918;SDS011;19280;42.646;21.150;2023-05-01T00:16:49;20.60;;;12.63;;
32918;SDS011;19280;42.646;21.150;2023-05-01T00:19:15;30.08;;;14.38;;
32918;SDS011;19280;42.646;21.150;2023-05-01T00:21:44;26.92;;;14.32;;
32918;SDS011;19280;42.646;21.150;2023-05-01T00:24:11;27.83;;;15.25;;
32918;SDS011;19280;42.646;21.150;2023-05-01T00:26:37;28.58;;;17.98;;
32918;SDS011;19280;42.646;21.150;2023-05-01T00:29:03;30.83;;;17.98;;
32918;SDS011;19280;42.646;21.150;2023-05-01T00:31:30;29.52;;;17.52;;
32918;SDS011;19280;42.646;21.150;2023-05-01T00:33:56;32.08;;;16.85;;
32918;SDS011;19280;42.646;21.150;2023-05-01T00:36:22;33.13;;;17.83;;
32918;SDS011;19280;42.646;21.150;2023-05-01T00:38:48;26.05;;;16.33;;
32918;SDS011;19280;42.646;21.150;2023-05-01T00:41:14;26.67;;;15.13;;
32918;SDS011;19280;42.646;21.150;2023-05-01T00:43:41;30.80;;;17.00;;
32918;SDS011;19280;42.646;21.150;2023-05-01T00:46:08;29.88;;;18.83;;
32918;SDS011;19280;42.646;21.150;2023-05-01T00:48:34;32.35;;;17.85;;
32918;SDS011;19280;42.646;21.150;2023-05-01T00:51:00;31.33;;;17.13;;
32918;SDS011;19280;42.646;21.150;2023-05-01T00:53:26;23.08;;;16.58;;
32918;SDS011;19280;42.646;21.150;2023-05-01T00:55:53;30.92;;;17.70;;
32918;SDS011;19280;42.646;21.150;2023-05-01T00:58:20;27.05;;;17.30;;
32918;SDS011;19280;42.646;21.150;2023-05-01T01:00:49;35.72;;;17.52;;
32918;SDS011;19280;42.646;21.150;2023-05-01T01:03:17;30.65;;;17.50;;
32918;SDS011;19280;42.646;21.150;2023-05-01T01:05:49;33.67;;;17.90;;
32918;SDS011;19280;42.646;21.150;2023-05-01T01:08:23;29.98;;;16.10;;
32918;SDS011;19280;42.646;21.150;2023-05-01T01:10:52;26.65;;;16.60;;
32918;SDS011;19280;42.646;21.150;2023-05-01T01:13:21;27.95;;;15.77;;
32918;SDS011;19280;42.646;21.150;2023-05-01T01:18:32;29.48;;;15.75;;
32918;SDS011;19280;42.646;21.150;2023-05-01T01:21:00;21.80;;;14.32;;
32918;SDS011;19280;42.646;21.150;2023-05-01T01:23:36;22.90;;;13.90;;
32918;SDS011;19280;42.646;21.150;2023-05-01T01:31:27;23.38;;;11.73;;
32918;SDS011;19280;42.646;21.150;2023-05-01T01:34:07;18.60;;;11.32;;
32918;SDS011;19280;42.646;21.150;2023-05-01T01:41:32;22.10;;;11.38;;
32918;SDS011;19280;42.646;21.150;2023-05-01T01:44:00;21.83;;;11.65;;
32918;SDS011;19280;42.646;21.150;2023-05-01T01:46:27;21.38;;;12.02;;
32918;SDS011;19280;42.646;21.150;2023-05-01T01:48:55;17.48;;;11.75;;
32918;SDS011;19280;42.646;21.150;2023-05-01T01:51:22;19.15;;;11.00;;
32918;SDS011;19280;42.646;21.150;2023-05-01T01:53:51;22.42;;;12.23;;
32918;SDS011;19280;42.646;21.150;2023-05-01T01:56:18;24.30;;;12.65;;
32918;SDS011;19280;42.646;21.150;2023-05-01T01:58:45;17.30;;;11.85;;
32918;SDS011;19280;42.646;21.150;2023-05-01T02:01:12;19.08;;;12.13;;
32918;SDS011;19280;42.646;21.150;2023-05-01T02:03:38;20.95;;;12.48;;
32918;SDS011;19280;42.646;21.150;2023-05-01T02:06:05;16.48;;;11.25;;
32918;SDS011;19280;42.646;21.150;2023-05-01T02:08:33;20.02;;;11.02;;
32918;SDS011;19280;42.646;21.150;2023-05-01T02:11:00;15.98;;;11.25;;
32918;SDS011;19280;42.646;21.150;2023-05-01T02:13:28;19.63;;;11.23;;
32918;SDS011;19280;42.646;21.150;2023-05-01T02:15:55;16.67;;;9.70;;
32918;SDS011;19280;42.646;21.150;2023-05-01T02:18:21;16.15;;;10.18;;
32918;SDS011;19280;42.646;21.150;2023-05-01T02:20:48;17.02;;;9.93;;
32918;SDS011;19280;42.646;21.150;2023-05-01T02:23:15;13.93;;;9.82;;
32918;SDS011;19280;42.646;21.150;2023-05-01T02:25:41;17.98;;;10.55;;
32918;SDS011;19280;42.646;21.150;2023-05-01T02:28:11;15.38;;;10.18;;
32918;SDS011;19280;42.646;21.150;2023-05-01T02:30:38;14.07;;;10.05;;
32918;SDS011;19280;42.646;21.150;2023-05-01T02:33:07;18.52;;;11.07;;
32918;SDS011;19280;42.646;21.150;2023-05-01T02:35:40;16.48;;;9.65;;
32918;SDS011;19280;42.646;21.150;2023-05-01T02:38:08;16.98;;;9.75;;
32918;SDS011;19280;42.646;21.150;2023-05-01T02:40:34;16.70;;;10.82;;
32918;SDS011;19280;42.646;21.150;2023-05-01T02:43:01;14.48;;;10.43;;
32918;SDS011;19280;42.646;21.150;2023-05-01T02:45:29;18.83;;;11.93;;
32918;SDS011;19280;42.646;21.150;2023-05-01T02:47:56;17.77;;;11.15;;
32918;SDS011;19280;42.646;21.150;2023-05-01T02:50:23;16.13;;;11.00;;
32918;SDS011;19280;42.646;21.150;2023-05-01T02:52:51;18.80;;;11.18;;
32918;SDS011;19280;42.646;21.150;2023-05-01T02:55:17;14.02;;;10.35;;
32918;SDS011;19280;42.646;21.150;2023-05-01T02:57:43;14.32;;;10.75;;
32918;SDS011;19280;42.646;21.150;2023-05-01T03:00:09;16.70;;;9.88;;
32918;SDS011;19280;42.646;21.150;2023-05-01T03:02:38;15.13;;;9.98;;
32918;SDS011;19280;42.646;21.150;2023-05-01T03:05:04;11.52;;;9.05;;
32918;SDS011;19280;42.646;21.150;2023-05-01T03:07:30;15.80;;;8.25;;
32918;SDS011;19280;42.646;21.150;2023-05-01T03:10:02;11.70;;;8.77;;
32918;SDS011;19280;42.646;21.150;2023-05-01T03:12:29;13.00;;;9.45;;
32918;SDS011;19280;42.646;21.150;2023-05-01T03:14:55;12.23;;;8.63;;
32918;SDS011;19280;42.646;21.150;2023-05-01T03:17:21;17.98;;;9.73;;
32918;SDS011;19280;42.646;21.150;2023-05-01T03:19:47;14.13;;;10.23;;
32918;SDS011;19280;42.646;21.150;2023-05-01T03:22:14;11.40;;;9.07;;
32918;SDS011;19280;42.646;21.150;2023-05-01T03:24:40;14.38;;;9.18;;
32918;SDS011;19280;42.646;21.150;2023-05-01T03:27:06;16.48;;;10.32;;
32918;SDS011;19280;42.646;21.150;2023-05-01T03:29:33;15.35;;;10.07;;
32918;SDS011;19280;42.646;21.150;2023-05-01T03:31:59;18.83;;;10.20;;
32918;SDS011;19280;42.646;21.150;2023-05-01T03:34:25;26.02;;;10.98;;
32918;SDS011;19280;42.646;21.150;2023-05-01T03:36:54;17.80;;;11.90;;
32918;SDS011;19280;42.646;21.150;2023-05-01T03:39:20;15.15;;;10.90;;
32918;SDS011;19280;42.646;21.150;2023-05-01T03:41:47;14.25;;;10.35;;
32918;SDS011;19280;42.646;21.150;2023-05-01T03:44:13;20.25;;;11.93;;
32918;SDS011;19280;42.646;21.150;2023-05-01T03:46:39;17.27;;;11.20;;
32918;SDS011;19280;42.646;21.150;2023-05-01T03:49:05;20.15;;;10.50;;
32918;SDS011;19280;42.646;21.150;2023-05-01T03:51:32;16.70;;;11.05;;
32918;SDS011;19280;42.646;21.150;2023-05-01T03:53:58;22.05;;;10.88;;
32918;SDS011;19280;42.646;21.150;2023-05-01T03:56:24;13.32;;;9.82;;
32918;SDS011;19280;42.646;21.150;2023-05-01T03:58:50;12.20;;;9.43;;
32918;SDS011;19280;42.646;21.150;2023-05-01T04:01:17;16.20;;;10.27;;
32918;SDS011;19280;42.646;21.150;2023-05-01T04:03:43;12.93;;;9.25;;
32918;SDS011;19280;42.646;21.150;2023-05-01T04:06:10;12.68;;;9.30;;
32918;SDS011;19280;42.646;21.150;2023-05-01T04:08:36;15.60;;;10.70;;
32918;SDS011;19280;42.646;21.150;2023-05-01T04:11:02;23.67;;;15.48;;
32918;SDS011;19280;42.646;21.150;2023-05-01T04:13:28;21.45;;;13.75;;
32918;SDS011;19280;42.646;21.150;2023-05-01T04:15:55;16.90;;;12.50;;
32918;SDS011;19280;42.646;21.150;2023-05-01T04:18:23;20.33;;;10.20;;
32918;SDS011;19280;42.646;21.150;2023-05-01T04:20:49;14.02;;;9.98;;
32918;SDS011;19280;42.646;21.150;2023-05-01T04:23:18;13.27;;;9.95;;
32918;SDS011;19280;42.646;21.150;2023-05-01T04:25:45;17.10;;;10.25;;
32918;SDS011;19280;42.646;21.150;2023-05-01T04:28:11;12.35;;;8.10;;
32918;SDS011;19280;42.646;21.150;2023-05-01T04:30:37;13.68;;;8.05;;
32918;SDS011;19280;42.646;21.150;2023-05-01T04:33:04;12.10;;;7.55;;
32918;SDS011;19280;42.646;21.150;2023-05-01T04:35:40;11.30;;;7.25;;
32918;SDS011;19280;42.646;21.150;2023-05-01T04:38:07;15.07;;;6.45;;
32918;SDS011;19280;42.646;21.150;2023-05-01T04:40:34;13.13;;;7.70;;
32918;SDS011;19280;42.646;21.150;2023-05-01T04:43:00;14.05;;;6.90;;
32918;SDS011;19280;42.646;21.150;2023-05-01T04:45:26;20.67;;;13.70;;
32918;SDS011;19280;42.646;21.150;2023-05-01T04:47:52;22.73;;;15.30;;
32918;SDS011;19280;42.646;21.150;2023-05-01T04:50:18;13.77;;;7.65;;
32918;SDS011;19280;42.646;21.150;2023-05-01T04:52:45;11.60;;;6.93;;
32918;SDS011;19280;42.646;21.150;2023-05-01T04:55:11;7.60;;;5.13;;
32918;SDS011;19280;42.646;21.150;2023-05-01T04:57:37;10.38;;;7.00;;
32918;SDS011;19280;42.646;21.150;2023-05-01T05:00:05;12.80;;;7.97;;
32918;SDS011;19280;42.646;21.150;2023-05-01T05:02:31;14.38;;;8.13;;
32918;SDS011;19280;42.646;21.150;2023-05-01T05:04:58;10.88;;;5.70;;
32918;SDS011;19280;42.646;21.150;2023-05-01T05:07:24;9.40;;;6.45;;
32918;SDS011;19280;42.646;21.150;2023-05-01T05:09:50;13.02;;;6.97;;
32918;SDS011;19280;42.646;21.150;2023-05-01T05:12:16;15.18;;;10.93;;
32918;SDS011;19280;42.646;21.150;2023-05-01T05:14:42;7.53;;;5.88;;
32918;SDS011;19280;42.646;21.150;2023-05-01T05:17:08;8.73;;;5.95;;
32918;SDS011;19280;42.646;21.150;2023-05-01T05:19:34;11.45;;;5.75;;
32918;SDS011;19280;42.646;21.150;2023-05-01T05:22:01;9.60;;;5.20;;
32918;SDS011;19280;42.646;21.150;2023-05-01T05:26:55;13.73;;;7.55;;
32918;SDS011;19280;42.646;21.150;2023-05-01T05:29:22;9.35;;;6.28;;
32918;SDS011;19280;42.646;21.150;2023-05-01T05:31:48;7.07;;;4.90;;
32918;SDS011;19280;42.646;21.150;2023-05-01T05:34:14;8.60;;;5.50;;
32918;SDS011;19280;42.646;21.150;2023-05-01T05:36:40;9.45;;;5.72;;
32918;SDS011;19280;42.646;21.150;2023-05-01T05:39:07;9.40;;;5.35;;
32918;SDS011;19280;42.646;21.150;2023-05-01T05:41:33;8.07;;;5.53;;
32918;SDS011;19280;42.646;21.150;2023-05-01T05:43:59;10.48;;;5.85;;
32918;SDS011;19280;42.646;21.150;2023-05-01T05:46:25;8.73;;;5.53;;
32918;SDS011;19280;42.646;21.150;2023-05-01T05:48:51;9.05;;;6.43;;
32918;SDS011;19280;42.646;21.150;2023-05-01T05:51:17;10.23;;;5.63;;
32918;SDS011;19280;42.646;21.150;2023-05-01T05:53:43;14.93;;;6.25;;
32918;SDS011;19280;42.646;21.150;2023-05-01T05:56:09;12.48;;;6.65;;
32918;SDS011;19280;42.646;21.150;2023-05-01T05:58:36;10.45;;;6.38;;
32918;SDS011;19280;42.646;21.150;2023-05-01T06:01:06;25.30;;;7.72;;
32918;SDS011;19280;42.646;21.150;2023-05-01T06:03:33;13.55;;;7.05;;
32918;SDS011;19280;42.646;21.150;2023-05-01T06:06:00;14.57;;;7.00;;
32918;SDS011;19280;42.646;21.150;2023-05-01T06:08:26;14.25;;;7.47;;
32918;SDS011;19280;42.646;21.150;2023-05-01T06:10:52;22.08;;;7.85;;
32918;SDS011;19280;42.646;21.150;2023-05-01T06:13:18;16.50;;;8.00;;
32918;SDS011;19280;42.646;21.150;2023-05-01T06:15:45;14.32;;;7.85;;
32918;SDS011;19280;42.646;21.150;2023-05-01T06:18:11;12.25;;;7.20;;
32918;SDS011;19280;42.646;21.150;2023-05-01T06:20:38;11.48;;;7.25;;
32918;SDS011;19280;42.646;21.150;2023-05-01T06:23:04;11.60;;;7.07;;
32918;SDS011;19280;42.646;21.150;2023-05-01T06:25:30;11.35;;;7.20;;
32918;SDS011;19280;42.646;21.150;2023-05-01T06:27:56;15.20;;;7.07;;
32918;SDS011;19280;42.646;21.150;2023-05-01T06:30:22;15.02;;;7.38;;
32918;SDS011;19280;42.646;21.150;2023-05-01T06:32:48;13.05;;;8.15;;
32918;SDS011;19280;42.646;21.150;2023-05-01T06:35:14;11.18;;;6.88;;
32918;SDS011;19280;42.646;21.150;2023-05-01T06:37:41;11.45;;;6.30;;
32918;SDS011;19280;42.646;21.150;2023-05-01T06:40:07;12.23;;;6.32;;
32918;SDS011;19280;42.646;21.150;2023-05-01T06:42:34;7.20;;;5.53;;
32918;SDS011;19280;42.646;21.150;2023-05-01T06:45:00;10.02;;;5.55;;
32918;SDS011;19280;42.646;21.150;2023-05-01T06:47:27;7.65;;;5.28;;
32918;SDS011;19280;42.646;21.150;2023-05-01T06:49:53;6.55;;;5.35;;
32918;SDS011;19280;42.646;21.150;2023-05-01T06:52:19;11.38;;;5.25;;
32918;SDS011;19280;42.646;21.150;2023-05-01T06:54:45;7.40;;;4.70;;
32918;SDS011;19280;42.646;21.150;2023-05-01T06:57:11;11.45;;;4.95;;
32918;SDS011;19280;42.646;21.150;2023-05-01T06:59:37;8.38;;;4.63;;
32918;SDS011;19280;42.646;21.150;2023-05-01T07:02:04;7.93;;;4.90;;
32918;SDS011;19280;42.646;21.150;2023-05-01T07:04:30;5.90;;;4.53;;
32918;SDS011;19280;42.646;21.150;2023-05-01T07:06:56;8.63;;;5.05;;
32918;SDS011;19280;42.646;21.150;2023-05-01T07:09:22;5.97;;;4.78;;
32918;SDS011;19280;42.646;21.150;2023-05-01T07:11:48;6.68;;;4.50;;
32918;SDS011;19280;42.646;21.150;2023-05-01T07:14:14;8.20;;;4.68;;
32918;SDS011;19280;42.646;21.150;2023-05-01T07:16:41;5.72;;;4.78;;
32918;SDS011;19280;42.646;21.150;2023-05-01T07:19:07;6.53;;;4.68;;
32918;SDS011;19280;42.646;21.150;2023-05-01T07:21:33;5.82;;;4.18;;
32918;SDS011;19280;42.646;21.150;2023-05-01T07:23:59;5.53;;;3.65;;
32918;SDS011;19280;42.646;21.150;2023-05-01T07:26:25;4.60;;;3.45;;
32918;SDS011;19280;42.646;21.150;2023-05-01T07:28:52;7.32;;;3.65;;
32918;SDS011;19280;42.646;21.150;2023-05-01T07:31:18;6.55;;;3.70;;
32918;SDS011;19280;42.646;21.150;2023-05-01T07:33:44;6.03;;;3.40;;
32918;SDS011;19280;42.646;21.150;2023-05-01T07:36:11;6.45;;;3.28;;
32918;SDS011;19280;42.646;21.150;2023-05-01T07:38:38;4.68;;;3.05;;
32918;SDS011;19280;42.646;21.150;2023-05-01T07:41:04;6.78;;;3.60;;
32918;SDS011;19280;42.646;21.150;2023-05-01T07:43:30;5.85;;;3.28;;
32918;SDS011;19280;42.646;21.150;2023-05-01T07:45:59;5.40;;;3.30;;
32918;SDS011;19280;42.646;21.150;2023-05-01T07:48:26;7.40;;;3.58;;
32918;SDS011;19280;42.646;21.150;2023-05-01T07:50:52;4.30;;;3.25;;
32918;SDS011;19280;42.646;21.150;2023-05-01T07:53:19;4.43;;;3.53;;
32918;SDS011;19280;42.646;21.150;2023-05-01T07:55:48;6.45;;;3.42;;
32918;SDS011;19280;42.646;21.150;2023-05-01T07:58:14;4.32;;;3.10;;
32918;SDS011;19280;42.646;21.150;2023-05-01T08:00:44;6.00;;;2.88;;
32918;SDS011;19280;42.646;21.150;2023-05-01T08:03:13;7.47;;;3.10;;
32918;SDS011;19280;42.646;21.150;2023-05-01T08:05:40;4.28;;;3.10;;
32918;SDS011;19280;42.646;21.150;2023-05-01T08:08:07;4.63;;;2.67;;
32918;SDS011;19280;42.646;21.150;2023-05-01T08:10:34;3.45;;;2.97;;
32918;SDS011;19280;42.646;21.150;2023-05-01T08:13:00;3.22;;;2.28;;
32918;SDS011;19280;42.646;21.150;2023-05-01T08:15:26;4.07;;;2.25;;
32918;SDS011;19280;42.646;21.150;2023-05-01T08:17:52;3.30;;;2.40;;
32918;SDS011;19280;42.646;21.150;2023-05-01T08:20:18;3.70;;;2.50;;
32918;SDS011;19280;42.646;21.150;2023-05-01T08:22:44;3.95;;;2.88;;
32918;SDS011;19280;42.646;21.150;2023-05-01T08:25:10;4.68;;;2.80;;
32918;SDS011;19280;42.646;21.150;2023-05-01T08:27:37;4.03;;;2.40;;
32918;SDS011;19280;42.646;21.150;2023-05-01T08:30:03;2.90;;;2.53;;
32918;SDS011;19280;42.646;21.150;2023-05-01T08:32:29;3.03;;;2.00;;
32918;SDS011;19280;42.646;21.150;2023-05-01T08:34:56;4.95;;;2.38;;
32918;SDS011;19280;42.646;21.150;2023-05-01T08:37:22;7.00;;;2.45;;
32918;SDS011;19280;42.646;21.150;2023-05-01T08:39:48;7.15;;;3.55;;
32918;SDS011;19280;42.646;21.150;2023-05-01T08:42:14;6.38;;;3.35;;
32918;SDS011;19280;42.646;21.150;2023-05-01T08:44:41;5.97;;;2.60;;
32918;SDS011;19280;42.646;21.150;2023-05-01T08:47:11;3.92;;;2.40;;
32918;SDS011;19280;42.646;21.150;2023-05-01T08:49:40;5.07;;;2.72;;
32918;SDS011;19280;42.646;21.150;2023-05-01T08:52:06;2.80;;;2.28;;
32918;SDS011;19280;42.646;21.150;2023-05-01T08:54:35;3.13;;;2.28;;
32918;SDS011;19280;42.646;21.150;2023-05-01T08:57:03;4.57;;;2.50;;
32918;SDS011;19280;42.646;21.150;2023-05-01T08:59:34;3.30;;;2.22;;
32918;SDS011;19280;42.646;21.150;2023-05-01T09:02:01;4.68;;;2.63;;
32918;SDS011;19280;42.646;21.150;2023-05-01T09:04:34;3.03;;;2.10;;
32918;SDS011;19280;42.646;21.150;2023-05-01T09:07:01;5.38;;;2.42;;
32918;SDS011;19280;42.646;21.150;2023-05-01T09:09:27;3.30;;;2.63;;
32918;SDS011;19280;42.646;21.150;2023-05-01T09:11:59;3.40;;;2.20;;
32918;SDS011;19280;42.646;21.150;2023-05-01T09:14:25;3.63;;;2.58;;
32918;SDS011;19280;42.646;21.150;2023-05-01T09:16:51;4.65;;;2.67;;
32918;SDS011;19280;42.646;21.150;2023-05-01T09:19:18;4.40;;;2.45;;
32918;SDS011;19280;42.646;21.150;2023-05-01T09:21:45;4.93;;;3.10;;
32918;SDS011;19280;42.646;21.150;2023-05-01T09:24:11;4.57;;;2.60;;
32918;SDS011;19280;42.646;21.150;2023-05-01T09:26:40;4.80;;;2.58;;
32918;SDS011;19280;42.646;21.150;2023-05-01T09:29:07;7.70;;;2.58;;
32918;SDS011;19280;42.646;21.150;2023-05-01T09:31:34;5.40;;;2.85;;
32918;SDS011;19280;42.646;21.150;2023-05-01T09:34:04;4.20;;;2.95;;
32918;SDS011;19280;42.646;21.150;2023-05-01T09:36:32;6.28;;;3.10;;
32918;SDS011;19280;42.646;21.150;2023-05-01T09:38:59;6.55;;;2.83;;
32918;SDS011;19280;42.646;21.150;2023-05-01T09:41:26;5.15;;;3.83;;
32918;SDS011;19280;42.646;21.150;2023-05-01T09:43:53;6.38;;;4.90;;
32918;SDS011;19280;42.646;21.150;2023-05-01T09:46:19;5.45;;;2.63;;
32918;SDS011;19280;42.646;21.150;2023-05-01T09:49:00;4.38;;;3.03;;
32918;SDS011;19280;42.646;21.150;2023-05-01T09:51:31;5.25;;;2.47;;
32918;SDS011;19280;42.646;21.150;2023-05-01T09:54:00;5.90;;;2.65;;
32918;SDS011;19280;42.646;21.150;2023-05-01T09:56:28;3.85;;;2.83;;
32918;SDS011;19280;42.646;21.150;2023-05-01T09:58:54;7.82;;;3.33;;
32918;SDS011;19280;42.646;21.150;2023-05-01T10:01:36;4.85;;;2.92;;
32918;SDS011;19280;42.646;21.150;2023-05-01T10:06:31;3.47;;;2.30;;
32918;SDS011;19280;42.646;21.150;2023-05-01T10:08:57;6.05;;;2.65;;
32918;SDS011;19280;42.646;21.150;2023-05-01T10:11:23;4.90;;;2.72;;
32918;SDS011;19280;42.646;21.150;2023-05-01T10:14:06;4.40;;;2.85;;
32918;SDS011;19280;42.646;21.150;2023-05-01T10:16:33;3.75;;;2.55;;
32918;SDS011;19280;42.646;21.150;2023-05-01T10:19:00;4.05;;;2.80;;
32918;SDS011;19280;42.646;21.150;2023-05-01T10:21:27;5.25;;;2.40;;
32918;SDS011;19280;42.646;21.150;2023-05-01T10:23:56;2.85;;;2.30;;
32918;SDS011;19280;42.646;21.150;2023-05-01T10:26:23;6.05;;;2.38;;
32918;SDS011;19280;42.646;21.150;2023-05-01T10:28:50;4.60;;;2.30;;
32918;SDS011;19280;42.646;21.150;2023-05-01T10:31:16;3.95;;;2.33;;
32918;SDS011;19280;42.646;21.150;2023-05-01T10:33:43;5.15;;;2.70;;
32918;SDS011;19280;42.646;21.150;2023-05-01T10:36:14;4.38;;;2.30;;
32918;SDS011;19280;42.646;21.150;2023-05-01T10:38:42;3.17;;;2.15;;
32918;SDS011;19280;42.646;21.150;2023-05-01T10:41:12;6.28;;;2.20;;
32918;SDS011;19280;42.646;21.150;2023-05-01T10:43:38;2.65;;;2.00;;
32918;SDS011;19280;42.646;21.150;2023-05-01T10:46:25;2.67;;;2.20;;
32918;SDS011;19280;42.646;21.150;2023-05-01T10:48:54;4.50;;;2.50;;
32918;SDS011;19280;42.646;21.150;2023-05-01T10:51:21;7.93;;;4.82;;
32918;SDS011;19280;42.646;21.150;2023-05-01T10:53:48;5.55;;;2.60;;
32918;SDS011;19280;42.646;21.150;2023-05-01T10:58:54;4.05;;;2.40;;
32918;SDS011;19280;42.646;21.150;2023-05-01T11:01:33;2.95;;;1.88;;
32918;SDS011;19280;42.646;21.150;2023-05-01T11:04:01;5.10;;;1.95;;
32918;SDS011;19280;42.646;21.150;2023-05-01T11:06:34;4.03;;;2.10;;
32918;SDS011;19280;42.646;21.150;2023-05-01T11:11:45;6.75;;;2.28;;
32918;SDS011;19280;42.646;21.150;2023-05-01T11:14:13;3.70;;;2.35;;
32918;SDS011;19280;42.646;21.150;2023-05-01T11:16:40;4.50;;;2.40;;
32918;SDS011;19280;42.646;21.150;2023-05-01T11:19:07;10.27;;;2.65;;
32918;SDS011;19280;42.646;21.150;2023-05-01T11:21:37;8.45;;;2.47;;
32918;SDS011;19280;42.646;21.150;2023-05-01T11:24:05;3.73;;;2.47;;
32918;SDS011;19280;42.646;21.150;2023-05-01T11:26:32;4.05;;;2.00;;
32918;SDS011;19280;42.646;21.150;2023-05-01T11:29:02;3.92;;;2.08;;
32918;SDS011;19280;42.646;21.150;2023-05-01T11:31:28;4.72;;;2.65;;
32918;SDS011;19280;42.646;21.150;2023-05-01T11:33:55;4.20;;;2.33;;
32918;SDS011;19280;42.646;21.150;2023-05-01T11:36:21;3.60;;;2.00;;
32918;SDS011;19280;42.646;21.150;2023-05-01T11:38:50;3.40;;;2.22;;
32918;SDS011;19280;42.646;21.150;2023-05-01T11:41:19;4.47;;;2.95;;
32918;SDS011;19280;42.646;21.150;2023-05-01T11:43:56;3.53;;;2.63;;
32918;SDS011;19280;42.646;21.150;2023-05-01T11:46:23;3.15;;;2.50;;
32918;SDS011;19280;42.646;21.150;2023-05-01T11:48:51;7.10;;;2.90;;
32918;SDS011;19280;42.646;21.150;2023-05-01T11:51:17;3.35;;;2.17;;
32918;SDS011;19280;42.646;21.150;2023-05-01T11:56:46;6.75;;;3.47;;
32918;SDS011;19280;42.646;21.150;2023-05-01T11:59:13;4.75;;;2.72;;
32918;SDS011;19280;42.646;21.150;2023-05-01T12:01:40;3.72;;;2.70;;
32918;SDS011;19280;42.646;21.150;2023-05-01T12:04:08;7.10;;;4.15;;
32918;SDS011;19280;42.646;21.150;2023-05-01T12:06:44;4.10;;;2.90;;
32918;SDS011;19280;42.646;21.150;2023-05-01T12:11:37;5.20;;;2.67;;
32918;SDS011;19280;42.646;21.150;2023-05-01T12:14:04;7.15;;;2.33;;
32918;SDS011;19280;42.646;21.150;2023-05-01T12:16:30;5.55;;;2.28;;
32918;SDS011;19280;42.646;21.150;2023-05-01T12:18:56;4.50;;;2.58;;
32918;SDS011;19280;42.646;21.150;2023-05-01T12:21:23;3.22;;;2.33;;
32918;SDS011;19280;42.646;21.150;2023-05-01T12:23:50;5.85;;;2.80;;
32918;SDS011;19280;42.646;21.150;2023-05-01T12:26:23;3.58;;;2.25;;
32918;SDS011;19280;42.646;21.150;2023-05-01T12:29:07;3.63;;;2.67;;
32918;SDS011;19280;42.646;21.150;2023-05-01T12:31:34;10.52;;;3.55;;
32918;SDS011;19280;42.646;21.150;2023-05-01T12:34:04;5.65;;;3.00;;
32918;SDS011;19280;42.646;21.150;2023-05-01T12:36:32;7.20;;;4.43;;
32918;SDS011;19280;42.646;21.150;2023-05-01T12:39:08;4.93;;;2.13;;
32918;SDS011;19280;42.646;21.150;2023-05-01T12:41:40;5.10;;;2.38;;
32918;SDS011;19280;42.646;21.150;2023-05-01T12:46:45;4.22;;;2.30;;
32918;SDS011;19280;42.646;21.150;2023-05-01T12:49:18;5.03;;;2.35;;
32918;SDS011;19280;42.646;21.150;2023-05-01T12:51:45;5.40;;;2.40;;
32918;SDS011;19280;42.646;21.150;2023-05-01T12:54:16;4.45;;;2.13;;
32918;SDS011;19280;42.646;21.150;2023-05-01T12:56:42;4.00;;;2.72;;
32918;SDS011;19280;42.646;21.150;2023-05-01T12:59:18;5.57;;;2.80;;
32918;SDS011;19280;42.646;21.150;2023-05-01T13:01:44;5.22;;;2.75;;
32918;SDS011;19280;42.646;21.150;2023-05-01T13:04:10;4.90;;;2.47;;
32918;SDS011;19280;42.646;21.150;2023-05-01T13:06:36;7.15;;;2.80;;
32918;SDS011;19280;42.646;21.150;2023-05-01T13:09:06;4.90;;;2.25;;
32918;SDS011;19280;42.646;21.150;2023-05-01T13:11:35;3.78;;;2.30;;
32918;SDS011;19280;42.646;21.150;2023-05-01T13:14:05;8.38;;;3.42;;
32918;SDS011;19280;42.646;21.150;2023-05-01T13:16:32;9.52;;;3.30;;
32918;SDS011;19280;42.646;21.150;2023-05-01T13:18:58;8.45;;;3.33;;
32918;SDS011;19280;42.646;21.150;2023-05-01T13:21:25;5.90;;;2.80;;
32918;SDS011;19280;42.646;21.150;2023-05-01T13:23:52;7.40;;;3.92;;
32918;SDS011;19280;42.646;21.150;2023-05-01T13:26:28;7.65;;;2.97;;
32918;SDS011;19280;42.646;21.150;2023-05-01T13:28:56;7.38;;;4.05;;
32918;SDS011;19280;42.646;21.150;2023-05-01T13:31:24;7.10;;;2.80;;
32918;SDS011;19280;42.646;21.150;2023-05-01T13:33:50;4.57;;;2.72;;
32918;SDS011;19280;42.646;21.150;2023-05-01T13:36:17;5.57;;;2.28;;
32918;SDS011;19280;42.646;21.150;2023-05-01T13:38:45;7.20;;;2.90;;
32918;SDS011;19280;42.646;21.150;2023-05-01T13:41:17;8.90;;;2.75;;
32918;SDS011;19280;42.646;21.150;2023-05-01T13:43:44;9.43;;;3.72;;
32918;SDS011;19280;42.646;21.150;2023-05-01T13:46:10;9.77;;;3.55;;
32918;SDS011;19280;42.646;21.150;2023-05-01T13:48:39;7.82;;;3.67;;
32918;SDS011;19280;42.646;21.150;2023-05-01T13:51:06;21.30;;;6.85;;
32918;SDS011;19280;42.646;21.150;2023-05-01T13:53:32;10.80;;;5.13;;
32918;SDS011;19280;42.646;21.150;2023-05-01T13:55:58;9.77;;;4.85;;
32918;SDS011;19280;42.646;21.150;2023-05-01T13:58:26;10.48;;;3.97;;
32918;SDS011;19280;42.646;21.150;2023-05-01T14:00:53;8.32;;;3.17;;
32918;SDS011;19280;42.646;21.150;2023-05-01T14:03:20;7.65;;;3.75;;
32918;SDS011;19280;42.646;21.150;2023-05-01T14:05:46;13.20;;;5.50;;
32918;SDS011;19280;42.646;21.150;2023-05-01T14:08:13;6.50;;;2.70;;
32918;SDS011;19280;42.646;21.150;2023-05-01T14:10:39;8.02;;;4.57;;
32918;SDS011;19280;42.646;21.150;2023-05-01T14:13:05;11.40;;;3.90;;
32918;SDS011;19280;42.646;21.150;2023-05-01T14:15:35;11.50;;;3.63;;
32918;SDS011;19280;42.646;21.150;2023-05-01T14:18:04;8.32;;;3.20;;
32918;SDS011;19280;42.646;21.150;2023-05-01T14:20:31;12.52;;;4.50;;
32918;SDS011;19280;42.646;21.150;2023-05-01T14:22:57;9.63;;;3.50;;
32918;SDS011;19280;42.646;21.150;2023-05-01T14:25:25;15.93;;;5.95;;
32918;SDS011;19280;42.646;21.150;2023-05-01T14:27:51;15.05;;;3.05;;
32918;SDS011;19280;42.646;21.150;2023-05-01T14:30:22;7.00;;;4.30;;
32918;SDS011;19280;42.646;21.150;2023-05-01T14:32:51;6.82;;;4.70;;
32918;SDS011;19280;42.646;21.150;2023-05-01T14:35:19;35.13;;;24.13;;
32918;SDS011;19280;42.646;21.150;2023-05-01T14:37:45;16.80;;;9.65;;
32918;SDS011;19280;42.646;21.150;2023-05-01T14:40:11;8.60;;;4.63;;
32918;SDS011;19280;42.646;21.150;2023-05-01T14:42:41;5.72;;;2.33;;
32918;SDS011;19280;42.646;21.150;2023-05-01T14:45:17;3.92;;;2.53;;
32918;SDS011;19280;42.646;21.150;2023-05-01T14:47:46;8.18;;;4.30;;
32918;SDS011;19280;42.646;21.150;2023-05-01T14:50:17;2.58;;;1.70;;
32918;SDS011;19280;42.646;21.150;2023-05-01T14:52:44;6.65;;;3.92;;
32918;SDS011;19280;42.646;21.150;2023-05-01T14:55:10;7.90;;;5.88;;
32918;SDS011;19280;42.646;21.150;2023-05-01T14:57:37;5.78;;;1.70;;
32918;SDS011;19280;42.646;21.150;2023-05-01T15:00:03;2.63;;;1.40;;